メインページ
METAR-TAF:

METAR-TAF

空港 :

Sabzevar, イラン

緯度: 36-13N, 経度: 057-40E, 海抜: 941m

現時点の気象観測

当レポートは1時間22分前の06:00(UTC)に作成
東/南東の風 12kt
気温 20°C
湿度 49%
気圧 1020 hPa
視程10km以上
高度3500ftの雲は散在している

METAR: OIMS 250600Z 12012KT 9999 SCT035 20/09 Q1020

時間: 11:52 (07:22 UTC)


TAF: 見つかりません

4,000以上の空港の気象観測と天気予報(METAR報とTAF報)

利用可能な観測所は地図上に黄色い丸と赤い丸で示す。

丸の上にカーソルを重ねると観測所名を参照できる。

次にクリックすると気象観測と天気予報を参照できる。

マップの切り替え:黒色「×」印の緑ボタンをクリックして拡大、「-」印の緑ボタンをクリックして縮小、緑色の三角印をクリックして隣りの地図に切り替え


METAR-TAF: